Time;durP1;ratioP1;P1;durP2;ratioP2;P2;SDS_P1;SDS_P2;PMS_P1;PMS_P2;Temp;Humidity;BMP_temperature;BMP_pressure;BME280_temperature;BME280_humidity;BME280_pressure;Samples;Min_cycle;Max_cycle;Signal;HPM_P1;HPM_P2
2022/02/10 00:05:30;;;;;;;23.30;21.70;;;5.20;81.70;;;;;;5130152;28;20533;-72
2022/02/10 00:13:46;;;;;;;23.92;22.20;;;5.10;82.10;;;;;;5129969;27;20556;-71
2022/02/10 00:16:33;;;;;;;24.33;22.50;;;5.10;81.70;;;;;;5129912;27;20296;-71
2022/02/10 00:19:26;;;;;;;25.70;23.90;;;5.10;81.20;;;;;;5129281;27;20219;-72
2022/02/10 00:21:58;;;;;;;24.23;22.60;;;5.00;81.30;;;;;;5129533;27;20220;-72
2022/02/10 00:35:33;;;;;;;24.05;22.70;;;5.00;81.30;;;;;;5115881;28;20195;-72
2022/02/10 00:38:00;;;;;;;24.27;22.67;;;4.90;81.10;;;;;;5115855;28;20223;-71
2022/02/10 00:40:29;;;;;;;24.00;22.40;;;4.90;81.60;;;;;;5115736;28;20215;-72
2022/02/10 00:42:59;;;;;;;22.92;21.58;;;4.90;81.50;;;;;;5115606;28;20197;-71
2022/02/10 00:45:28;;;;;;;24.65;23.15;;;4.90;81.60;;;;;;5115547;28;20216;-72
2022/02/10 00:47:58;;;;;;;23.60;22.30;;;4.80;81.40;;;;;;5115512;28;20266;-72
2022/02/10 00:50:27;;;;;;;23.70;22.15;;;4.90;81.30;;;;;;5115205;28;20250;-71
2022/02/10 00:53:00;;;;;;;23.05;21.35;;;4.90;80.80;;;;;;5115454;28;20651;-72
2022/02/10 00:55:29;;;;;;;23.65;22.15;;;4.90;80.90;;;;;;5115375;28;20199;-72
2022/02/10 00:57:58;;;;;;;22.83;21.30;;;4.90;81.80;;;;;;5115130;28;20655;-72
2022/02/10 01:02:12;;;;;;;23.98;22.48;;;4.80;83.20;;;;;;5115125;28;20301;-72
2022/02/10 01:31:03;;;;;;;24.48;22.83;;;4.80;80.80;;;;;;5114561;28;20232;-72
2022/02/10 01:33:32;;;;;;;22.92;21.58;;;4.70;80.50;;;;;;5114785;28;20286;-72
2022/02/10 01:35:59;;;;;;;23.90;22.40;;;4.80;80.10;;;;;;5114579;28;20563;-72
2022/02/10 01:38:26;;;;;;;23.08;21.67;;;4.80;80.10;;;;;;5114336;28;20251;-72
2022/02/10 01:41:22;;;;;;;24.10;22.40;;;4.80;80.50;;;;;;5113724;28;20300;-72
2022/02/10 01:57:50;;;;;;;23.60;22.20;;;4.60;81.70;;;;;;5114234;28;20193;-72
2022/02/10 02:03:24;;;;;;;23.40;22.00;;;4.60;81.20;;;;;;5114236;28;20549;-72
2022/02/10 02:06:04;;;;;;;23.45;21.60;;;4.60;80.70;;;;;;5114088;28;20300;-72
2022/02/10 02:08:34;;;;;;;23.10;21.70;;;4.60;80.70;;;;;;5114006;28;20189;-72
2022/02/10 02:11:02;;;;;;;23.27;21.90;;;4.60;80.40;;;;;;5113723;28;20213;-71
2022/02/10 02:13:29;;;;;;;23.23;21.92;;;4.60;80.40;;;;;;5113726;28;20196;-72
2022/02/10 02:15:57;;;;;;;24.02;22.58;;;4.60;81.70;;;;;;5113749;28;20206;-72
2022/02/10 02:18:25;;;;;;;23.35;21.65;;;4.60;81.00;;;;;;5113252;27;20219;-72
2022/02/10 02:20:55;;;;;;;22.30;20.90;;;4.60;80.50;;;;;;5113447;27;20225;-72
2022/02/10 02:23:25;;;;;;;23.60;22.25;;;4.60;80.60;;;;;;5113503;28;20670;-71
2022/02/10 02:25:58;;;;;;;23.17;21.77;;;4.60;79.80;;;;;;5113561;28;20200;-72
2022/02/10 02:28:25;;;;;;;22.48;21.10;;;4.60;80.80;;;;;;5113554;28;20244;-72
2022/02/10 02:30:53;;;;;;;22.65;21.23;;;4.70;80.60;;;;;;5113353;28;20313;-72
2022/02/10 02:36:37;;;;;;;22.23;20.92;;;4.70;79.30;;;;;;5113162;28;20262;-72
2022/02/10 02:39:27;;;;;;;23.67;22.20;;;4.80;79.00;;;;;;5113141;28;20218;-72
2022/02/10 03:07:07;;;;;;;22.95;21.65;;;4.80;79.20;;;;;;5110194;27;20536;-72
2022/02/10 03:09:40;;;;;;;22.88;21.58;;;4.80;78.30;;;;;;5110283;28;20193;-72
2022/02/10 03:12:09;;;;;;;22.20;20.90;;;4.80;78.10;;;;;;5110465;28;20304;-71
2022/02/10 03:14:44;;;;;;;23.15;21.75;;;4.80;78.70;;;;;;5110559;28;20681;-71
2022/02/10 03:20:14;;;;;;;24.00;22.50;;;4.80;78.30;;;;;;5098741;28;20305;-71
2022/02/10 04:12:33;;;;;;;25.40;23.58;;;4.20;79.00;;;;;;5107693;28;20295;-72
2022/02/10 04:15:07;;;;;;;25.35;23.67;;;4.20;79.30;;;;;;5108884;28;20192;-72
2022/02/10 04:17:53;;;;;;;26.55;24.95;;;4.20;79.60;;;;;;5100255;28;20198;-72
2022/02/10 04:20:43;;;;;;;24.55;23.05;;;4.20;79.60;;;;;;5095516;28;20217;-71
2022/02/10 04:23:20;;;;;;;26.05;24.45;;;4.30;79.40;;;;;;5095230;28;20563;-72
2022/02/10 04:25:58;;;;;;;23.75;22.15;;;4.30;79.30;;;;;;5095345;28;20223;-71
2022/02/10 04:28:42;;;;;;;26.55;24.35;;;4.40;78.90;;;;;;5095463;28;20211;-72
2022/02/10 04:53:39;;;;;;;24.02;22.42;;;4.40;79.50;;;;;;5094912;28;20670;-72
2022/02/10 04:56:18;;;;;;;23.40;22.00;;;4.40;79.50;;;;;;5094781;28;20605;-72
2022/02/10 04:58:57;;;;;;;24.63;23.00;;;4.50;79.30;;;;;;5094792;28;20204;-72
2022/02/10 05:01:40;;;;;;;24.23;22.73;;;4.50;79.30;;;;;;5094463;28;20307;-72
2022/02/10 05:04:48;;;;;;;25.00;23.60;;;4.40;79.90;;;;;;5094660;28;20230;-72
2022/02/10 05:18:24;;;;;;;23.90;22.52;;;4.70;78.90;;;;;;5094227;28;20186;-71
2022/02/10 05:21:06;;;;;;;22.80;21.50;;;4.80;78.90;;;;;;5094041;28;20301;-72
2022/02/10 05:23:56;;;;;;;25.58;24.00;;;4.80;78.80;;;;;;5094094;28;20201;-72
2022/02/10 05:32:16;;;;;;;25.67;24.08;;;5.00;77.50;;;;;;5094213;28;20217;-72
2022/02/10 05:34:49;;;;;;;23.70;22.33;;;5.10;77.40;;;;;;5094088;28;20198;-72
2022/02/10 05:37:18;;;;;;;24.90;23.30;;;5.10;77.60;;;;;;5093939;28;20194;-72
2022/02/10 05:39:48;;;;;;;23.35;21.95;;;5.20;77.20;;;;;;5093812;28;20200;-72
2022/02/10 05:45:11;;;;;;;26.05;24.55;;;5.20;77.00;;;;;;5082828;28;20188;-72
2022/02/10 05:53:34;;;;;;;24.55;22.85;;;5.30;76.60;;;;;;5093777;28;20199;-72
2022/02/10 05:56:15;;;;;;;23.27;21.70;;;5.40;76.10;;;;;;5093647;28;20251;-72
2022/02/10 05:59:11;;;;;;;25.58;24.00;;;5.50;75.90;;;;;;5093657;28;20256;-72
2022/02/10 06:51:39;;;;;;;24.58;23.08;;;5.10;78.10;;;;;;4990917;28;20217;-71
2022/02/10 06:54:16;;;;;;;25.33;23.45;;;5.10;78.60;;;;;;5033189;28;20205;-71
2022/02/10 06:57:28;;;;;;;25.90;24.40;;;5.20;78.40;;;;;;5073960;28;20677;-71
2022/02/10 07:03:12;;;;;;;27.58;26.02;;;5.20;78.20;;;;;;5092746;28;20287;-71
2022/02/10 07:06:06;;;;;;;26.10;24.60;;;5.20;78.40;;;;;;5092333;28;20217;-72
2022/02/10 07:08:53;;;;;;;25.85;23.80;;;5.10;78.30;;;;;;5092477;28;20295;-71
2022/02/10 07:11:44;;;;;;;25.40;23.30;;;5.20;78.30;;;;;;5092337;28;20228;-71
2022/02/10 07:17:21;;;;;;;25.38;23.50;;;5.10;79.30;;;;;;5053439;28;20199;-72
2022/02/10 07:50:35;;;;;;;25.90;23.75;;;6.60;74.50;;;;;;5049455;28;20281;-71
2022/02/10 07:53:24;;;;;;;27.05;24.85;;;6.70;74.30;;;;;;5052283;28;20235;-72
2022/02/10 07:59:07;;;;;;;26.60;24.80;;;6.90;73.50;;;;;;5095862;28;20191;-71
2022/02/10 08:56:36;;;;;;;26.38;24.23;;;8.80;69.10;;;;;;5094753;28;20676;-72
2022/02/10 08:59:26;;;;;;;27.40;25.63;;;8.90;68.90;;;;;;5094797;28;20210;-71
2022/02/10 09:02:14;;;;;;;25.70;23.90;;;9.10;68.20;;;;;;5094630;28;20306;-72
2022/02/10 09:04:53;;;;;;;27.30;25.70;;;9.10;68.20;;;;;;5094526;28;20200;-72
2022/02/10 09:11:11;;;;;;;25.67;23.98;;;9.40;67.80;;;;;;5051881;28;20296;-72
2022/02/10 09:13:43;;;;;;;26.63;24.92;;;9.50;67.60;;;;;;5094233;28;20253;-72
2022/02/10 09:19:19;;;;;;;27.50;25.73;;;9.90;66.80;;;;;;5070755;28;20453;-72
2022/02/10 09:55:35;;;;;;;26.97;25.03;;;11.20;63.50;;;;;;5093638;28;20443;-72
2022/02/10 09:58:27;;;;;;;25.30;23.50;;;11.30;63.20;;;;;;5093678;28;20463;-72
2022/02/10 10:01:22;;;;;;;26.87;24.97;;;11.50;62.80;;;;;;5093199;28;20491;-72
2022/02/10 10:04:04;;;;;;;27.87;25.83;;;11.60;62.70;;;;;;5093476;28;20450;-72
2022/02/10 10:06:50;;;;;;;27.10;24.90;;;11.70;62.50;;;;;;5093269;28;20532;-72
2022/02/10 10:09:41;;;;;;;27.47;25.13;;;11.70;62.30;;;;;;5093043;28;20455;-72
2022/02/10 10:12:42;;;;;;;26.77;24.70;;;11.60;62.30;;;;;;5093223;28;20541;-72
2022/02/10 10:15:42;;;;;;;26.17;24.37;;;11.50;62.90;;;;;;5092871;28;20892;-72
2022/02/10 10:27:14;;;;;;;28.20;26.30;;;12.00;61.80;;;;;;5084855;28;20925;-72
2022/02/10 10:52:43;;;;;;;27.97;25.67;;;13.20;58.90;;;;;;5092577;28;20851;-72
2022/02/10 10:57:55;;;;;;;28.20;26.40;;;13.00;59.50;;;;;;5083451;28;20453;-72
2022/02/10 11:00:39;;;;;;;26.70;24.80;;;13.00;59.30;;;;;;5092372;28;20594;-71
2022/02/10 11:23:59;;;;;;;29.20;27.40;;;13.00;60.30;;;;;;5092446;28;20474;-72
2022/02/10 11:37:30;;;;;;;26.03;24.23;;;12.80;61.00;;;;;;5096478;28;20433;-72
2022/02/10 11:40:10;;;;;;;27.17;25.40;;;12.90;61.00;;;;;;5096101;28;20539;-72
2022/02/10 11:42:55;;;;;;;27.33;25.43;;;12.90;60.60;;;;;;5096220;28;20445;-72
2022/02/10 14:13:36;;;;;;;28.90;26.88;;;9.10;78.30;;;;;;5045672;28;20283;-72
2022/02/10 14:16:27;;;;;;;31.20;29.02;;;8.90;78.60;;;;;;5076604;28;20670;-72
2022/02/10 14:19:01;;;;;;;29.92;27.45;;;9.00;78.70;;;;;;5092957;28;20187;-72
2022/02/10 14:21:33;;;;;;;30.48;28.30;;;9.00;78.40;;;;;;5092895;28;20223;-71
2022/02/10 14:26:48;;;;;;;29.85;27.85;;;8.90;78.70;;;;;;5093068;28;20219;-72
2022/02/10 14:29:15;;;;;;;30.55;28.40;;;9.00;78.40;;;;;;5093036;28;20286;-71
2022/02/10 14:31:45;;;;;;;32.00;29.80;;;8.80;78.70;;;;;;5093181;28;20273;-71
2022/02/10 14:34:17;;;;;;;32.80;30.02;;;8.70;78.90;;;;;;5092827;28;20661;-72
2022/02/10 14:36:47;;;;;;;30.67;28.42;;;8.60;79.50;;;;;;5092906;28;20200;-72
2022/02/10 14:39:28;;;;;;;30.20;27.83;;;8.60;79.50;;;;;;5092688;28;20206;-72
2022/02/10 16:16:43;;;;;;;29.73;27.75;;;9.30;76.50;;;;;;5091612;28;20191;-73
2022/02/10 16:18:58;;;;;;;29.52;27.63;;;9.20;76.50;;;;;;5095218;28;20203;-73
2022/02/10 16:21:35;;;;;;;30.42;28.20;;;9.10;76.80;;;;;;5095417;28;20227;-72
2022/02/10 16:24:13;;;;;;;29.60;27.60;;;8.80;78.10;;;;;;5095511;28;20198;-73
2022/02/10 16:26:53;;;;;;;29.80;27.70;;;8.70;78.60;;;;;;5095318;28;20197;-72
2022/02/10 16:29:20;;;;;;;29.20;27.00;;;8.60;78.90;;;;;;5095423;28;20533;-72
2022/02/10 16:31:48;;;;;;;30.67;28.70;;;8.60;79.10;;;;;;5095337;28;20216;-72
2022/02/10 16:34:14;;;;;;;30.20;28.20;;;8.70;78.00;;;;;;5095246;28;20274;-72
2022/02/10 16:36:41;;;;;;;30.38;27.98;;;8.70;78.10;;;;;;5095230;28;20552;-73
2022/02/10 16:39:08;;;;;;;27.52;25.77;;;8.70;78.50;;;;;;5095022;28;20549;-73
2022/02/10 16:41:35;;;;;;;25.80;24.20;;;8.70;74.60;;;;;;5095104;28;20214;-73
2022/02/10 16:44:04;;;;;;;25.85;24.05;;;8.80;73.20;;;;;;5095062;28;20680;-73
2022/02/10 16:46:32;;;;;;;26.08;24.55;;;8.90;71.80;;;;;;5094863;28;20286;-73
2022/02/10 16:48:59;;;;;;;25.73;24.05;;;9.00;71.60;;;;;;5094865;28;20256;-73
2022/02/10 16:51:27;;;;;;;26.75;25.15;;;8.90;70.90;;;;;;5094725;28;20406;-73
2022/02/10 16:54:03;;;;;;;25.30;23.80;;;8.90;70.80;;;;;;5094964;28;20286;-73
2022/02/10 16:56:36;;;;;;;25.20;23.80;;;8.90;70.60;;;;;;5094874;28;20553;-73
2022/02/10 16:59:13;;;;;;;25.10;23.77;;;9.00;70.40;;;;;;5094898;28;20195;-73
2022/02/10 17:04:54;;;;;;;23.45;22.05;;;8.90;69.10;;;;;;5094785;28;20190;-73
2022/02/10 17:25:07;;;;;;;25.05;23.50;;;9.10;68.30;;;;;;5083261;28;20219;-73
2022/02/10 17:27:11;;;;;;;24.15;22.55;;;9.10;68.10;;;;;;5094105;28;20222;-73
2022/02/10 17:29:55;;;;;;;26.35;24.75;;;9.20;68.10;;;;;;5094113;28;20206;-73
2022/02/10 17:32:32;;;;;;;25.58;24.05;;;9.10;67.80;;;;;;5094394;28;20223;-73
2022/02/10 17:35:19;;;;;;;25.17;23.88;;;9.10;68.30;;;;;;5094147;28;20196;-73
2022/02/10 17:46:22;;;;;;;25.80;24.40;;;9.00;68.50;;;;;;5051822;28;20239;-73
2022/02/10 17:51:51;;;;;;;25.25;23.77;;;9.10;68.50;;;;;;5093809;28;20223;-73
2022/02/10 17:54:19;;;;;;;24.10;22.50;;;9.00;68.40;;;;;;5093796;28;20195;-73
2022/02/10 17:56:48;;;;;;;24.42;22.95;;;9.10;68.50;;;;;;5093736;28;20273;-73
2022/02/10 17:59:15;;;;;;;24.45;23.10;;;9.10;68.50;;;;;;5093522;28;20735;-73
2022/02/10 18:01:44;;;;;;;26.58;24.98;;;9.10;68.50;;;;;;5093597;28;20218;-73
2022/02/10 18:04:13;;;;;;;26.00;24.40;;;9.00;69.40;;;;;;5093575;28;20261;-73
2022/02/10 18:06:42;;;;;;;24.65;23.15;;;9.00;69.40;;;;;;5093439;28;20261;-73
2022/02/10 18:09:30;;;;;;;24.00;22.58;;;8.90;69.40;;;;;;5093348;28;20302;-73
2022/02/10 18:14:47;;;;;;;23.90;22.60;;;9.00;69.30;;;;;;5093446;28;20490;-72
2022/02/10 18:17:21;;;;;;;24.10;22.80;;;9.00;69.30;;;;;;5093301;28;20744;-73
2022/02/10 18:19:53;;;;;;;24.75;23.20;;;8.90;69.60;;;;;;5092837;28;20205;-72
2022/02/10 18:25:25;;;;;;;24.20;22.70;;;8.90;70.40;;;;;;5092812;28;20194;-73
2022/02/10 18:33:40;;;;;;;23.88;22.55;;;8.90;69.90;;;;;;5093324;28;20671;-73
2022/02/10 19:06:48;;;;;;;26.40;24.60;;;8.80;70.90;;;;;;5092508;28;20290;-73
2022/02/10 19:09:26;;;;;;;27.50;25.00;;;8.70;71.70;;;;;;5092262;28;20302;-72
2022/02/10 19:11:59;;;;;;;28.17;25.88;;;8.70;71.60;;;;;;5092627;28;20251;-73
2022/02/10 19:14:26;;;;;;;25.13;23.40;;;8.60;73.20;;;;;;5092571;28;20202;-73
2022/02/10 19:16:54;;;;;;;25.02;23.38;;;8.60;72.80;;;;;;5092492;28;20231;-73
2022/02/10 19:19:21;;;;;;;25.48;23.90;;;8.50;72.70;;;;;;5092106;28;20551;-72
2022/02/10 19:21:48;;;;;;;23.52;22.02;;;8.50;72.70;;;;;;5092391;28;20247;-73
2022/02/10 19:24:17;;;;;;;26.42;24.73;;;8.50;72.80;;;;;;5092244;28;20196;-71
2022/02/10 19:26:50;;;;;;;23.58;22.15;;;8.50;73.30;;;;;;5092382;28;20562;-72
2022/02/10 19:29:17;;;;;;;24.50;22.90;;;8.50;75.60;;;;;;5092130;28;20215;-72
2022/02/10 19:31:45;;;;;;;24.75;23.35;;;8.40;74.60;;;;;;5092231;28;20219;-71
2022/02/10 19:34:12;;;;;;;24.33;22.83;;;8.50;73.80;;;;;;5092218;28;20231;-72
2022/02/10 19:36:39;;;;;;;25.27;23.67;;;8.60;73.30;;;;;;5092141;28;20655;-71
2022/02/10 19:39:07;;;;;;;24.17;22.70;;;8.60;72.80;;;;;;5092287;28;20575;-72
2022/02/10 19:41:40;;;;;;;26.27;24.45;;;8.60;73.40;;;;;;5092186;28;20219;-71
2022/02/10 19:44:07;;;;;;;26.17;24.70;;;8.60;73.90;;;;;;5092221;28;20283;-72
2022/02/10 19:46:35;;;;;;;25.60;24.10;;;8.60;73.00;;;;;;5092058;28;20701;-72
2022/02/10 19:49:02;;;;;;;24.20;22.75;;;8.40;73.70;;;;;;5094586;28;20216;-71
2022/02/10 19:51:29;;;;;;;24.42;22.73;;;8.40;73.70;;;;;;5095988;28;20215;-72
2022/02/10 19:53:56;;;;;;;23.42;22.02;;;8.40;73.60;;;;;;5096125;28;20231;-72
2022/02/10 19:56:25;;;;;;;24.20;22.80;;;8.30;74.20;;;;;;5096021;28;20191;-72
2022/02/10 19:58:53;;;;;;;24.00;22.70;;;8.30;74.30;;;;;;5095900;28;20195;-72
2022/02/10 20:01:23;;;;;;;24.52;23.02;;;8.30;74.10;;;;;;5095758;28;20645;-72
2022/02/10 20:03:50;;;;;;;25.83;23.90;;;8.30;74.10;;;;;;5095854;28;20207;-72
2022/02/10 20:06:17;;;;;;;24.33;22.63;;;8.30;74.00;;;;;;5095608;28;20203;-72
2022/02/10 20:08:47;;;;;;;25.05;23.52;;;8.20;75.50;;;;;;5095667;28;20223;-72
2022/02/10 20:11:14;;;;;;;25.33;23.80;;;8.10;78.80;;;;;;5095535;28;20277;-73
2022/02/10 20:13:42;;;;;;;24.80;23.10;;;8.10;77.00;;;;;;5095637;28;20193;-72
2022/02/10 20:16:11;;;;;;;25.58;23.90;;;8.00;76.20;;;;;;5095478;28;20290;-72
2022/02/10 20:18:39;;;;;;;25.70;24.10;;;8.00;76.00;;;;;;5095362;28;20195;-72
2022/02/10 20:21:08;;;;;;;26.50;24.80;;;8.00;75.80;;;;;;5095280;28;20223;-72
2022/02/10 20:23:35;;;;;;;25.70;24.10;;;7.90;76.50;;;;;;5095325;28;20286;-72
2022/02/10 20:26:02;;;;;;;25.63;24.08;;;7.90;76.50;;;;;;5095187;28;20203;-72
2022/02/10 20:28:30;;;;;;;23.75;22.30;;;7.90;76.40;;;;;;5095308;28;20707;-72
2022/02/10 20:30:57;;;;;;;26.52;24.85;;;7.80;76.50;;;;;;5095126;28;20215;-72
2022/02/10 20:33:28;;;;;;;24.55;23.15;;;7.70;77.10;;;;;;5095282;28;20657;-72
2022/02/10 20:35:57;;;;;;;24.98;23.48;;;7.60;77.60;;;;;;5095368;28;20290;-72
2022/02/10 20:38:25;;;;;;;24.83;23.23;;;7.60;78.30;;;;;;5095290;28;20200;-72
2022/02/10 20:40:59;;;;;;;24.10;22.60;;;7.70;79.00;;;;;;5095107;28;20245;-72
2022/02/10 20:43:26;;;;;;;23.40;22.00;;;7.70;78.50;;;;;;5095356;28;20652;-72
2022/02/10 20:45:57;;;;;;;24.92;23.20;;;7.80;77.90;;;;;;5095436;28;20282;-72
2022/02/10 20:48:28;;;;;;;25.65;23.67;;;7.80;77.60;;;;;;5095084;28;20221;-72
2022/02/10 20:50:57;;;;;;;24.80;23.00;;;7.80;77.20;;;;;;5094803;28;20230;-72
2022/02/10 20:53:25;;;;;;;25.77;24.02;;;7.80;77.10;;;;;;5094985;28;20196;-72
2022/02/10 20:55:54;;;;;;;25.27;23.67;;;7.70;77.50;;;;;;5094909;28;20679;-72
2022/02/10 20:58:22;;;;;;;25.10;23.25;;;7.50;78.10;;;;;;5094817;28;20199;-72
2022/02/10 21:00:51;;;;;;;24.83;23.10;;;7.40;78.40;;;;;;5094548;28;20219;-72
2022/02/10 21:03:20;;;;;;;24.08;22.67;;;7.40;78.40;;;;;;5094815;28;20605;-72
2022/02/10 21:05:51;;;;;;;24.73;23.33;;;7.50;78.30;;;;;;5094549;28;20217;-72
2022/02/10 21:08:29;;;;;;;25.20;23.42;;;7.50;78.00;;;;;;5094835;28;20249;-72
2022/02/10 21:10:56;;;;;;;26.50;24.75;;;7.50;78.20;;;;;;5094393;28;20718;-72
2022/02/10 21:13:24;;;;;;;25.42;23.67;;;7.50;78.20;;;;;;5094779;28;20292;-72
2022/02/10 21:15:53;;;;;;;25.50;24.00;;;7.50;78.30;;;;;;5094485;28;20204;-72
2022/02/10 21:18:20;;;;;;;25.70;24.10;;;7.60;78.20;;;;;;5094212;28;20574;-72
2022/02/10 21:20:50;;;;;;;25.35;23.60;;;7.60;78.20;;;;;;5094136;28;20218;-72
2022/02/10 21:23:25;;;;;;;26.92;25.40;;;7.60;78.50;;;;;;5094307;28;20235;-72
2022/02/10 21:25:55;;;;;;;25.95;24.45;;;7.60;78.30;;;;;;5094298;28;20195;-72
2022/02/10 21:28:26;;;;;;;26.20;24.40;;;7.70;78.20;;;;;;5094099;28;20718;-72
2022/02/10 21:30:56;;;;;;;25.80;24.10;;;7.70;78.00;;;;;;5093936;28;20232;-72
2022/02/10 21:33:29;;;;;;;25.08;23.33;;;7.70;78.00;;;;;;5094535;28;20202;-72
2022/02/10 21:38:57;;;;;;;26.17;24.48;;;7.70;78.10;;;;;;5068794;28;20198;-72
2022/02/10 22:09:40;;;;;;;26.15;24.48;;;7.80;78.30;;;;;;5050881;28;20791;-72
2022/02/10 22:16:21;;;;;;;26.45;24.85;;;7.70;78.50;;;;;;5088015;28;20215;-72
2022/02/10 22:20:43;;;;;;;24.60;23.13;;;7.70;78.50;;;;;;5074931;28;20389;-72
2022/02/10 22:23:17;;;;;;;25.58;24.00;;;7.80;78.00;;;;;;5093248;28;20225;-72
2022/02/10 22:25:46;;;;;;;25.17;23.58;;;7.70;78.30;;;;;;5093116;28;20201;-72
2022/02/10 22:28:26;;;;;;;25.63;23.92;;;7.80;78.20;;;;;;5093009;28;20291;-72
2022/02/10 22:31:04;;;;;;;26.65;24.95;;;7.70;78.40;;;;;;5092974;28;20221;-72
2022/02/10 22:33:44;;;;;;;24.88;23.30;;;7.70;78.60;;;;;;5093125;28;20199;-72
2022/02/10 22:36:14;;;;;;;25.67;23.88;;;7.80;78.60;;;;;;5093095;28;20591;-72
2022/02/10 22:38:41;;;;;;;26.40;24.70;;;7.80;78.40;;;;;;5092992;28;20628;-72
2022/02/10 22:41:11;;;;;;;24.73;23.20;;;7.80;78.30;;;;;;5092682;28;20227;-72
2022/02/10 22:43:38;;;;;;;25.83;24.13;;;7.80;78.30;;;;;;5092813;28;20209;-72
2022/02/10 22:46:06;;;;;;;24.52;22.85;;;7.80;79.50;;;;;;5092861;28;20199;-72
2022/02/10 22:48:33;;;;;;;25.25;23.65;;;7.80;78.60;;;;;;5092722;28;20308;-72
2022/02/10 22:51:00;;;;;;;25.38;23.80;;;7.90;78.40;;;;;;5092681;28;20228;-72
2022/02/10 22:53:27;;;;;;;25.17;23.23;;;7.90;78.30;;;;;;5092672;28;20206;-72
2022/02/10 22:55:55;;;;;;;24.75;23.30;;;7.90;78.90;;;;;;5092667;28;20286;-72
2022/02/10 22:58:23;;;;;;;24.98;23.42;;;7.90;78.50;;;;;;5092581;28;20200;-72
2022/02/10 23:00:51;;;;;;;25.88;24.27;;;8.00;80.00;;;;;;5092460;28;20215;-72
2022/02/10 23:03:19;;;;;;;24.58;23.08;;;7.90;79.70;;;;;;5092742;28;20198;-72
2022/02/10 23:05:47;;;;;;;26.67;24.98;;;8.00;79.10;;;;;;5092586;28;20207;-72
2022/02/10 23:08:14;;;;;;;26.77;25.27;;;8.00;78.90;;;;;;5092615;28;20202;-72
2022/02/10 23:10:47;;;;;;;26.13;24.45;;;8.00;78.30;;;;;;5092349;28;20225;-72
2022/02/10 23:13:15;;;;;;;25.00;23.40;;;8.00;77.90;;;;;;5092521;28;20229;-72
2022/02/10 23:15:44;;;;;;;24.38;22.80;;;8.10;77.70;;;;;;5092538;28;20286;-72
2022/02/10 23:18:13;;;;;;;24.75;22.90;;;8.00;77.70;;;;;;5092767;28;20207;-72
2022/02/10 23:20:40;;;;;;;24.63;22.95;;;8.00;78.00;;;;;;5092157;28;20293;-72
2022/02/10 23:23:09;;;;;;;25.30;23.60;;;8.00;78.20;;;;;;5095288;28;20712;-72
2022/02/10 23:25:36;;;;;;;25.05;23.50;;;8.00;78.00;;;;;;5096517;28;20202;-73
2022/02/10 23:28:05;;;;;;;24.83;23.23;;;8.00;77.60;;;;;;5096547;28;20198;-72
2022/02/10 23:30:33;;;;;;;26.10;24.50;;;8.00;78.30;;;;;;5096121;28;20573;-72
2022/02/10 23:33:07;;;;;;;24.52;23.13;;;8.00;78.40;;;;;;5096468;28;20207;-72
2022/02/10 23:38:21;;;;;;;25.63;23.85;;;7.90;78.70;;;;;;5074923;28;20199;-72
2022/02/10 23:41:12;;;;;;;26.67;25.08;;;7.90;78.80;;;;;;5096241;28;20700;-73
2022/02/10 23:43:38;;;;;;;25.00;23.50;;;8.00;82.40;;;;;;5096220;28;20199;-72
2022/02/10 23:46:05;;;;;;;40.30;33.97;;;8.00;80.80;;;;;;5096233;28;20248;-73
2022/02/10 23:48:34;;;;;;;32.97;29.95;;;8.00;79.10;;;;;;5096091;28;20615;-73
2022/02/10 23:51:02;;;;;;;25.60;23.85;;;7.90;78.60;;;;;;5095946;28;20580;-72
2022/02/10 23:53:30;;;;;;;27.45;25.73;;;7.80;78.80;;;;;;5096165;28;20227;-73
2022/02/10 23:55:58;;;;;;;27.23;25.23;;;7.90;78.80;;;;;;5096070;28;20287;-73
2022/02/10 23:58:33;;;;;;;25.77;23.92;;;7.90;78.70;;;;;;5095977;28;20199;-73
